createdAt,value
2023-01-09T00:01:38.944Z,97272.81
2023-01-09T00:04:09.779Z,97270.47
2023-01-09T00:06:40.306Z,97257.47
2023-01-09T00:09:09.666Z,97247.94
2023-01-09T00:11:39.261Z,97250.69
2023-01-09T00:14:11.199Z,97249.88
2023-01-09T00:16:40.693Z,97240.94
2023-01-09T00:19:10.026Z,97241.22
2023-01-09T00:21:39.825Z,97231.81
2023-01-09T00:24:09.933Z,97236.59
2023-01-09T00:26:39.268Z,97235.41
2023-01-09T00:29:12.967Z,97235.81
2023-01-09T00:31:42.487Z,97234.25
2023-01-09T00:34:13.810Z,97236.59
2023-01-09T00:36:42.965Z,97234.28
2023-01-09T00:39:12.296Z,97230.28
2023-01-09T00:41:45.659Z,97220.44
2023-01-09T00:44:21.509Z,97229.50
2023-01-09T00:46:59.079Z,97222.06
2023-01-09T00:49:32.511Z,97229.09
2023-01-09T00:52:02.227Z,97225.56
2023-01-09T00:54:33.205Z,97220.03
2023-01-09T00:57:02.672Z,97216.91
2023-01-09T00:59:33.216Z,97223.25
2023-01-09T01:02:02.430Z,97215.34
2023-01-09T01:04:49.250Z,97219.31
2023-01-09T01:07:36.110Z,97211.38
2023-01-09T01:10:07.402Z,97202.59
2023-01-09T01:12:36.737Z,97200.97
2023-01-09T01:15:09.061Z,97197.03
2023-01-09T01:17:41.175Z,97199.81
2023-01-09T01:20:14.472Z,97201.78
2023-01-09T01:22:44.260Z,97190.72
2023-01-09T01:25:17.019Z,97186.00
2023-01-09T01:27:47.032Z,97185.19
2023-01-09T01:30:19.195Z,97165.00
2023-01-09T01:32:48.429Z,97177.66
2023-01-09T01:35:17.704Z,97158.25
2023-01-09T01:37:49.162Z,97144.03
2023-01-09T01:40:20.232Z,97141.63
2023-01-09T01:42:51.772Z,97151.16
2023-01-09T01:45:24.692Z,97141.66
2023-01-09T01:48:00.140Z,97148.81
2023-01-09T01:50:34.372Z,97143.34
2023-01-09T01:53:14.374Z,97144.13
2023-01-09T01:55:52.473Z,97134.59
2023-01-09T01:58:22.055Z,97125.06
2023-01-09T02:00:52.665Z,97127.50
2023-01-09T02:03:27.334Z,97126.72
2023-01-09T02:05:56.650Z,97126.72
2023-01-09T02:08:27.214Z,97124.75
2023-01-09T02:10:57.782Z,97127.91
2023-01-09T02:13:28.351Z,97111.66
2023-01-09T02:16:34.924Z,97110.91
2023-01-09T02:19:24.724Z,97091.91
2023-01-09T02:22:08.724Z,97108.53
2023-01-09T02:25:09.565Z,97103.03
2023-01-09T02:28:22.044Z,97085.59
2023-01-09T02:30:57.021Z,97097.53
2023-01-09T02:33:43.735Z,97090.41
2023-01-09T02:36:25.409Z,97087.63
2023-01-09T02:39:12.186Z,97073.75
2023-01-09T02:41:51.366Z,97067.78
2023-01-09T02:44:24.795Z,97065.84
2023-01-09T02:47:07.457Z,97065.84
2023-01-09T02:49:39.721Z,97066.25
2023-01-09T02:52:32.723Z,97049.19
2023-01-09T02:55:12.163Z,97048.28
2023-01-09T02:57:57.215Z,97056.13
2023-01-09T03:00:40.272Z,97054.50
2023-01-09T03:03:18.993Z,97047.97
2023-01-09T03:05:57.322Z,97053.44
2023-01-09T03:08:34.439Z,97050.97
2023-01-09T03:11:07.807Z,97044.97
2023-01-09T03:13:47.072Z,97038.66
2023-01-09T03:16:22.504Z,97030.06
2023-01-09T03:18:55.113Z,97033.59
2023-01-09T03:21:25.149Z,97025.31
2023-01-09T03:23:57.265Z,97022.53
2023-01-09T03:26:29.379Z,97029.00
2023-01-09T03:28:59.769Z,97013.50
2023-01-09T03:31:29.188Z,97004.34
2023-01-09T03:33:59.911Z,97012.47
2023-01-09T03:36:29.180Z,97011.59
2023-01-09T03:38:59.501Z,97009.63
2023-01-09T03:41:29.032Z,97009.63
2023-01-09T03:43:58.166Z,97018.69
2023-01-09T03:46:27.394Z,97009.06
2023-01-09T03:48:56.527Z,97010.66
2023-01-09T03:51:27.125Z,97006.31
2023-01-09T03:53:57.338Z,97018.28
2023-01-09T03:56:26.689Z,97010.59
2023-01-09T03:58:56.167Z,97013.75
2023-01-09T04:01:25.409Z,97000.16
2023-01-09T04:03:54.740Z,97011.19
2023-01-09T04:06:24.138Z,97011.31
2023-01-09T04:08:55.001Z,97010.50
2023-01-09T04:11:24.161Z,97009.84
2023-01-09T04:13:53.378Z,97008.59
2023-01-09T04:16:22.594Z,97022.38
2023-01-09T04:18:51.916Z,97019.91
2023-01-09T04:21:21.212Z,97014.34
2023-01-09T04:23:59.219Z,97014.28
2023-01-09T04:26:28.591Z,97015.81
2023-01-09T04:28:58.015Z,97021.69
2023-01-09T04:31:27.430Z,97026.31
2023-01-09T04:33:56.624Z,97015.59
2023-01-09T04:36:29.010Z,97018.59
2023-01-09T04:39:02.483Z,97021.88
2023-01-09T04:41:54.511Z,97019.81
2023-01-09T04:44:26.997Z,97022.97
2023-01-09T04:46:58.978Z,97034.16
2023-01-09T04:49:28.402Z,97023.94
2023-01-09T04:51:57.788Z,97021.59
2023-01-09T04:54:28.983Z,97020.88
2023-01-09T04:56:58.171Z,97021.72
2023-01-09T04:59:27.288Z,97021.66
2023-01-09T05:01:58.437Z,97015.25
2023-01-09T05:04:27.834Z,97016.28
2023-01-09T05:06:57.063Z,97017.59
2023-01-09T05:09:27.707Z,97007.22
2023-01-09T05:11:56.952Z,97005.56
2023-01-09T05:14:26.489Z,97017.09
2023-01-09T05:16:57.018Z,97013.50
2023-01-09T05:19:26.795Z,97015.16
2023-01-09T05:21:55.947Z,97020.81
2023-01-09T05:25:00.370Z,97036.66
2023-01-09T05:27:31.809Z,97017.16
2023-01-09T05:30:01.377Z,97019.25
2023-01-09T05:32:34.706Z,97015.38
2023-01-09T05:35:05.513Z,97004.66
2023-01-09T05:37:34.916Z,96994.09
2023-01-09T05:40:06.979Z,97002.06
2023-01-09T05:42:36.191Z,96993.38
2023-01-09T05:45:06.555Z,96990.22
2023-01-09T05:47:35.717Z,96984.69
2023-01-09T05:50:07.046Z,96985.06
2023-01-09T05:52:36.271Z,96979.09
2023-01-09T05:55:08.945Z,96979.53
2023-01-09T05:57:38.298Z,96981.47
2023-01-09T06:00:09.509Z,96980.28
2023-01-09T06:02:38.841Z,96961.75
2023-01-09T06:05:10.413Z,96980.09
2023-01-09T06:07:40.873Z,96965.44
2023-01-09T06:10:14.363Z,96965.06
2023-01-09T06:12:49.957Z,96974.91
2023-01-09T06:15:20.593Z,96986.44
2023-01-09T06:17:49.749Z,96994.38
2023-01-09T06:20:19.304Z,96972.94
2023-01-09T06:22:52.016Z,96967.78
2023-01-09T06:25:22.874Z,96974.53
2023-01-09T06:27:52.904Z,96962.69
2023-01-09T06:30:22.698Z,96966.66
2023-01-09T06:32:52.155Z,96980.94
2023-01-09T06:35:22.458Z,96990.03
2023-01-09T06:37:51.692Z,96999.91
2023-01-09T06:40:22.515Z,97007.84
2023-01-09T06:42:51.845Z,97016.19
2023-01-09T06:45:21.059Z,97010.25
2023-01-09T06:47:50.218Z,97028.09
2023-01-09T06:50:19.834Z,97017.00
2023-01-09T06:52:49.135Z,97010.25
2023-01-09T06:55:18.538Z,97022.16
2023-01-09T06:57:52.163Z,97018.22
2023-01-09T07:00:22.420Z,97029.31
2023-01-09T07:02:51.746Z,97027.75
2023-01-09T07:05:20.919Z,97030.13
2023-01-09T07:07:50.201Z,97020.59
2023-01-09T07:10:19.558Z,97016.63
2023-01-09T07:12:50.353Z,97030.09
2023-01-09T07:15:19.465Z,97036.03
2023-01-09T07:17:50.079Z,97023.00
2023-01-09T07:20:19.707Z,97016.63
2023-01-09T07:22:49.077Z,97019.03
2023-01-09T07:25:18.631Z,97021.41
2023-01-09T07:27:49.461Z,97016.25
2023-01-09T07:30:19.609Z,97020.59
2023-01-09T07:32:48.761Z,97027.75
2023-01-09T07:35:18.609Z,97032.88
2023-01-09T07:37:48.214Z,97033.25
2023-01-09T07:40:17.583Z,97038.41
2023-01-09T07:42:46.887Z,97037.97
2023-01-09T07:45:17.814Z,97037.94
2023-01-09T07:47:47.544Z,97049.41
2023-01-09T07:50:17.096Z,97049.78
2023-01-09T07:52:46.915Z,97042.53
2023-01-09T07:55:17.640Z,97032.13
2023-01-09T07:57:51.094Z,97022.59
2023-01-09T08:00:22.743Z,97031.31
2023-01-09T08:02:55.532Z,97028.16
2023-01-09T08:05:24.846Z,97028.16
2023-01-09T08:07:54.004Z,97029.41
2023-01-09T08:10:23.367Z,97024.28
2023-01-09T08:12:52.859Z,97025.47
2023-01-09T08:15:23.653Z,97014.72
2023-01-09T08:17:52.965Z,97022.66
2023-01-09T08:20:22.223Z,97015.50
2023-01-09T08:22:53.647Z,97017.88
2023-01-09T08:25:23.115Z,97014.22
2023-01-09T08:27:52.707Z,97013.69
2023-01-09T08:30:23.465Z,97028.41
2023-01-09T08:32:54.767Z,97026.41
2023-01-09T08:35:24.047Z,97012.88
2023-01-09T08:37:53.580Z,97017.94
2023-01-09T08:40:22.784Z,97012.28
2023-01-09T08:43:09.417Z,97023.03
2023-01-09T08:45:57.493Z,97020.63
2023-01-09T08:48:27.092Z,97014.13
2023-01-09T08:50:56.482Z,97013.28
2023-01-09T08:53:25.788Z,97028.34
2023-01-09T08:55:54.895Z,97030.69
2023-01-09T08:58:24.300Z,97026.63
2023-01-09T09:00:55.043Z,97034.59
2023-01-09T09:03:24.243Z,97044.06
2023-01-09T09:05:53.420Z,97043.59
2023-01-09T09:08:22.633Z,97045.19
2023-01-09T09:10:51.811Z,97037.56
2023-01-09T09:13:21.046Z,97048.66
2023-01-09T09:15:50.530Z,97043.84
2023-01-09T09:18:21.253Z,97030.31
2023-01-09T09:20:50.568Z,97038.19
2023-01-09T09:23:19.868Z,97033.44
2023-01-09T09:25:49.100Z,97035.75
2023-01-09T09:28:18.418Z,97035.66
2023-01-09T09:30:47.753Z,97035.63
2023-01-09T09:33:17.083Z,97030.13
2023-01-09T09:35:47.675Z,97036.53
2023-01-09T09:38:17.048Z,97031.25
2023-01-09T09:41:35.316Z,97026.88
2023-01-09T09:44:43.869Z,97025.25
2023-01-09T09:47:32.714Z,97017.28
2023-01-09T09:50:16.339Z,97001.22
2023-01-09T09:52:57.530Z,96997.91
2023-01-09T09:55:33.374Z,96989.78
2023-01-09T09:58:08.847Z,96978.34
2023-01-09T10:00:38.094Z,96980.56
2023-01-09T10:03:13.938Z,96989.06
2023-01-09T10:05:47.517Z,96990.47
2023-01-09T10:08:32.147Z,96989.16
2023-01-09T10:11:02.491Z,96981.25
2023-01-09T10:13:49.707Z,96976.50
2023-01-09T10:16:35.555Z,96971.44
2023-01-09T10:19:22.744Z,96962.97
2023-01-09T10:22:03.250Z,96961.81
2023-01-09T10:24:50.793Z,96972.38
2023-01-09T10:27:37.413Z,96968.19
2023-01-09T10:30:26.784Z,96969.34
2023-01-09T10:33:07.155Z,96974.97
2023-01-09T10:35:54.232Z,96968.25
2023-01-09T10:38:29.975Z,96974.41
2023-01-09T10:41:08.064Z,96974.78
2023-01-09T10:43:46.263Z,96984.19
2023-01-09T10:46:22.953Z,96993.28
2023-01-09T10:48:57.092Z,96999.09
2023-01-09T10:51:32.966Z,96994.44
2023-01-09T10:54:02.171Z,97002.63
2023-01-09T10:56:39.878Z,96997.88
2023-01-09T10:59:11.117Z,96991.84
2023-01-09T11:01:43.410Z,96979.31
2023-01-09T11:04:24.797Z,96979.88
2023-01-09T11:06:59.896Z,96985.25
2023-01-09T11:09:29.177Z,96993.22
2023-01-09T11:11:59.807Z,96976.22
2023-01-09T11:14:31.576Z,96984.63
2023-01-09T11:17:04.059Z,96972.78
2023-01-09T11:19:34.156Z,96973.56
2023-01-09T11:22:16.204Z,96977.50
2023-01-09T11:24:46.350Z,96969.63
2023-01-09T11:27:27.158Z,96960.78
2023-01-09T11:30:24.102Z,96977.25
2023-01-09T11:32:53.694Z,96978.72
2023-01-09T11:35:28.632Z,96977.13
2023-01-09T11:38:05.523Z,96984.03
2023-01-09T11:40:49.536Z,96986.84
2023-01-09T11:43:32.856Z,96989.50
2023-01-09T11:46:06.555Z,96992.91
2023-01-09T11:48:54.290Z,96996.31
2023-01-09T11:51:26.296Z,97000.44
2023-01-09T11:54:19.486Z,96993.78
2023-01-09T11:56:50.583Z,96983.81
2023-01-09T11:59:26.205Z,96980.66
2023-01-09T12:02:36.896Z,96981.50
2023-01-09T12:05:21.412Z,96989.88
2023-01-09T12:08:12.370Z,96981.50
2023-01-09T12:11:08.103Z,96995.00
2023-01-09T12:13:52.846Z,96998.25
2023-01-09T12:16:35.932Z,96993.16
2023-01-09T12:19:28.328Z,96976.72
2023-01-09T12:22:07.455Z,96988.69
2023-01-09T12:25:15.155Z,96985.63
2023-01-09T12:28:01.298Z,96983.19
2023-01-09T12:30:51.206Z,96975.19
2023-01-09T12:33:41.624Z,96978.25
2023-01-09T12:36:21.139Z,96964.63
2023-01-09T12:38:56.156Z,96978.16
2023-01-09T12:42:00.542Z,96975.63
2023-01-09T12:44:54.338Z,96976.28
2023-01-09T12:47:50.129Z,96986.53
2023-01-09T12:51:15.794Z,96989.16
2023-01-09T12:53:52.350Z,96988.78
2023-01-09T12:56:27.699Z,96990.41
2023-01-09T12:59:01.835Z,96978.44
2023-01-09T13:01:38.976Z,96968.91
2023-01-09T13:04:16.722Z,96960.94
2023-01-09T13:06:52.512Z,96968.13
2023-01-09T13:09:28.925Z,96965.22
2023-01-09T13:12:08.706Z,96971.16
2023-01-09T13:14:51.560Z,96971.84
2023-01-09T13:17:28.426Z,96972.53
2023-01-09T13:19:57.737Z,96966.88
2023-01-09T13:22:29.980Z,96973.91
2023-01-09T13:25:43.435Z,96970.41
2023-01-09T13:28:23.502Z,96970.53
2023-01-09T13:31:28.658Z,96978.06
2023-01-09T13:34:02.812Z,96983.66
2023-01-09T13:36:36.215Z,96979.34
2023-01-09T13:39:07.310Z,97006.88
2023-01-09T13:42:07.024Z,97022.22
2023-01-09T13:44:36.223Z,97018.25
2023-01-09T13:47:06.011Z,97018.31
2023-01-09T13:50:03.161Z,97022.31
2023-01-09T13:52:37.367Z,97015.88
2023-01-09T13:55:30.207Z,97017.94
2023-01-09T13:58:29.406Z,97027.31
2023-01-09T14:01:05.191Z,97030.69
2023-01-09T14:03:37.940Z,97038.75
2023-01-09T14:06:20.176Z,97038.81
2023-01-09T14:09:06.680Z,97038.81
2023-01-09T14:11:35.968Z,97038.09
2023-01-09T14:14:21.621Z,97035.72
2023-01-09T14:16:51.243Z,97036.53
2023-01-09T14:19:38.287Z,97033.38
2023-01-09T14:22:11.107Z,97032.53
2023-01-09T14:24:44.101Z,97033.38
2023-01-09T14:28:04.285Z,97041.31
2023-01-09T14:30:38.868Z,97042.13
2023-01-09T14:33:29.999Z,97046.50
2023-01-09T14:36:12.527Z,97044.53
2023-01-09T14:38:46.843Z,97038.16
2023-01-09T14:41:48.904Z,97035.00
2023-01-09T14:44:29.888Z,97034.22
2023-01-09T14:47:08.207Z,97034.94
2023-01-09T14:49:42.369Z,97051.81
2023-01-09T14:52:22.466Z,97042.25
2023-01-09T14:54:53.495Z,97049.47
2023-01-09T14:57:28.281Z,97051.06
2023-01-09T15:00:02.888Z,97041.53
2023-01-09T15:02:37.933Z,97048.69
2023-01-09T15:05:11.685Z,97035.28
2023-01-09T15:07:45.500Z,97046.41
2023-01-09T15:10:20.392Z,97043.22
2023-01-09T15:12:52.946Z,97036.84
2023-01-09T15:15:23.993Z,97044.88
2023-01-09T15:17:58.133Z,97035.69
2023-01-09T15:20:31.141Z,97046.41
2023-01-09T15:23:01.812Z,97048.41
2023-01-09T15:25:38.816Z,97045.94
2023-01-09T15:28:29.608Z,97043.94
2023-01-09T15:31:05.414Z,97030.06
2023-01-09T15:33:39.418Z,97039.94
2023-01-09T15:36:16.549Z,97044.06
2023-01-09T15:38:46.821Z,97051.84
2023-01-09T15:41:40.811Z,97051.13
2023-01-09T15:44:17.358Z,97040.47
2023-01-09T15:46:50.261Z,97057.97
2023-01-09T15:49:22.021Z,97058.00
2023-01-09T15:51:52.831Z,97057.31
2023-01-09T15:54:30.299Z,97063.78
2023-01-09T15:57:34.263Z,97061.25
2023-01-09T16:00:45.398Z,97051.88
2023-01-09T16:03:25.023Z,97042.34
2023-01-09T16:06:05.768Z,97047.91
2023-01-09T16:08:39.495Z,97036.72
2023-01-09T16:11:18.297Z,97042.34
2023-01-09T16:13:48.810Z,97034.47
2023-01-09T16:16:30.696Z,97021.84
2023-01-09T16:19:00.988Z,97031.44
2023-01-09T16:21:37.543Z,97026.31
2023-01-09T16:24:27.852Z,97019.59
2023-01-09T16:27:24.182Z,97021.19
2023-01-09T16:29:58.002Z,97017.28
2023-01-09T16:32:31.405Z,97029.25
2023-01-09T16:35:06.038Z,97026.44
2023-01-09T16:37:38.163Z,97029.25
2023-01-09T16:40:32.251Z,97029.31
2023-01-09T16:43:03.975Z,97030.06
2023-01-09T16:45:38.876Z,97033.34
2023-01-09T16:48:15.030Z,97030.19
2023-01-09T16:50:45.448Z,97043.75
2023-01-09T16:53:21.984Z,97049.41
2023-01-09T16:55:53.599Z,97050.22
2023-01-09T16:58:27.352Z,97051.81
2023-01-09T17:00:57.073Z,97052.66
2023-01-09T17:03:27.688Z,97054.22
2023-01-09T17:06:03.238Z,97056.56
2023-01-09T17:08:38.030Z,97058.16
2023-01-09T17:11:23.290Z,97058.22
2023-01-09T17:13:52.570Z,97057.03
2023-01-09T17:16:22.949Z,97054.22
2023-01-09T17:18:52.488Z,97064.06
2023-01-09T17:21:25.513Z,97069.22
2023-01-09T17:24:10.574Z,97061.66
2023-01-09T17:27:01.722Z,97066.22
2023-01-09T17:29:31.375Z,97063.09
2023-01-09T17:32:04.031Z,97062.38
2023-01-09T17:34:34.467Z,97059.19
2023-01-09T17:37:04.909Z,97063.94
2023-01-09T17:39:35.612Z,97054.34
2023-01-09T17:42:04.967Z,97069.06
2023-01-09T17:44:34.223Z,97067.94
2023-01-09T17:47:03.615Z,97078.66
2023-01-09T17:49:34.123Z,97074.03
2023-01-09T17:52:06.073Z,97068.09
2023-01-09T17:54:36.875Z,97085.00
2023-01-09T17:57:08.334Z,97083.84
2023-01-09T17:59:37.871Z,97082.41
2023-01-09T18:02:07.596Z,97086.50
2023-01-09T18:04:39.617Z,97094.50
2023-01-09T18:07:11.141Z,97096.16
2023-01-09T18:09:41.918Z,97116.16
2023-01-09T18:12:11.419Z,97120.16
2023-01-09T18:14:42.126Z,97120.16
2023-01-09T18:17:16.292Z,97122.19
2023-01-09T18:19:46.615Z,97130.63
2023-01-09T18:22:19.071Z,97124.28
2023-01-09T18:24:52.604Z,97127.47
2023-01-09T18:27:22.253Z,97128.19
2023-01-09T18:29:51.643Z,97129.91
2023-01-09T18:32:20.893Z,97137.09
2023-01-09T18:34:50.937Z,97131.47
2023-01-09T18:37:22.882Z,97129.09
2023-01-09T18:39:56.666Z,97131.56
2023-01-09T18:42:26.390Z,97130.81
2023-01-09T18:44:55.756Z,97129.53
2023-01-09T18:47:25.360Z,97123.53
2023-01-09T18:49:54.733Z,97120.41
2023-01-09T18:52:31.327Z,97110.94
2023-01-09T18:55:02.470Z,97126.88
2023-01-09T18:57:32.917Z,97121.69
2023-01-09T19:00:09.509Z,97123.72
2023-01-09T19:02:38.904Z,97114.09
2023-01-09T19:05:09.473Z,97106.19
2023-01-09T19:07:41.170Z,97118.91
2023-01-09T19:10:13.891Z,97117.38
2023-01-09T19:12:45.304Z,97102.25
2023-01-09T19:15:15.037Z,97103.06
2023-01-09T19:17:44.632Z,97103.00
2023-01-09T19:20:16.362Z,97101.03
2023-01-09T19:22:45.628Z,97105.41
2023-01-09T19:25:16.828Z,97097.44
2023-01-09T19:27:53.498Z,97101.84
2023-01-09T19:30:23.136Z,97090.34
2023-01-09T19:32:52.593Z,97082.41
2023-01-09T19:35:26.783Z,97090.72
2023-01-09T19:37:56.199Z,97090.34
2023-01-09T19:40:29.355Z,97091.13
2023-01-09T19:43:00.935Z,97090.75
2023-01-09T19:45:32.865Z,97091.94
2023-01-09T19:48:06.216Z,97092.72
2023-01-09T19:50:39.784Z,97088.69
2023-01-09T19:53:14.773Z,97091.47
2023-01-09T19:56:13.246Z,97087.16
2023-01-09T19:58:52.370Z,97090.34
2023-01-09T20:01:24.942Z,97082.47
2023-01-09T20:04:03.504Z,97080.91
2023-01-09T20:06:35.069Z,97093.19
2023-01-09T20:09:07.919Z,97092.75
2023-01-09T20:12:35.734Z,97088.03
2023-01-09T20:15:14.933Z,97078.50
2023-01-09T20:17:45.129Z,97078.50
2023-01-09T20:20:29.960Z,97080.88
2023-01-09T20:22:59.216Z,97074.50
2023-01-09T20:25:28.759Z,97075.31
2023-01-09T20:28:01.472Z,97066.97
2023-01-09T20:30:34.348Z,97080.91
2023-01-09T20:33:08.700Z,97074.56
2023-01-09T20:35:44.952Z,97073.00
2023-01-09T20:38:14.498Z,97080.94
2023-01-09T20:40:44.601Z,97084.16
2023-01-09T20:43:15.264Z,97073.84
2023-01-09T20:45:45.610Z,97069.47
2023-01-09T20:48:15.138Z,97082.56
2023-01-09T20:50:47.811Z,97079.47
2023-01-09T20:53:18.026Z,97083.47
2023-01-09T20:55:47.757Z,97081.88
2023-01-09T20:58:19.619Z,97079.88
2023-01-09T21:00:51.208Z,97085.84
2023-01-09T21:03:25.498Z,97073.94
2023-01-09T21:05:55.006Z,97084.66
2023-01-09T21:08:25.365Z,97083.91
2023-01-09T21:10:58.230Z,97074.44
2023-01-09T21:13:30.401Z,97072.44
2023-01-09T21:16:02.913Z,97068.50
2023-01-09T21:18:33.791Z,97076.03
2023-01-09T21:21:05.640Z,97063.69
2023-01-09T21:23:35.339Z,97061.50
2023-01-09T21:26:10.784Z,97068.78
2023-01-09T21:28:46.818Z,97074.78
2023-01-09T21:31:19.334Z,97062.94
2023-01-09T21:33:50.773Z,97065.13
2023-01-09T21:36:22.570Z,97061.72
2023-01-09T21:38:58.326Z,97062.75
2023-01-09T21:41:45.010Z,97063.63
2023-01-09T21:44:33.261Z,97071.63
2023-01-09T21:47:05.243Z,97062.16
2023-01-09T21:49:39.095Z,97060.47
2023-01-09T21:52:09.788Z,97053.41
2023-01-09T21:54:42.681Z,97062.19
2023-01-09T21:57:14.221Z,97052.66
2023-01-09T21:59:45.175Z,97061.47
2023-01-09T22:02:16.209Z,97070.91
2023-01-09T22:04:49.141Z,97056.19
2023-01-09T22:07:21.365Z,97060.56
2023-01-09T22:09:50.844Z,97062.94
2023-01-09T22:12:39.571Z,97060.47
2023-01-09T22:15:11.654Z,97065.25
2023-01-09T22:17:41.049Z,97066.91
2023-01-09T22:20:12.432Z,97070.88
2023-01-09T22:22:44.073Z,97052.19
2023-01-09T22:25:13.344Z,97069.25
2023-01-09T22:27:49.535Z,97070.81
2023-01-09T22:30:20.437Z,97061.72
2023-01-09T22:32:49.873Z,97055.28
2023-01-09T22:35:20.362Z,97067.19
2023-01-09T22:37:49.722Z,97063.19
2023-01-09T22:40:19.527Z,97073.19
2023-01-09T22:42:48.784Z,97073.28
2023-01-09T22:45:19.640Z,97063.69
2023-01-09T22:47:49.049Z,97068.50
2023-01-09T22:50:19.002Z,97069.28
2023-01-09T22:53:08.521Z,97075.66
2023-01-09T22:55:37.882Z,97078.75
2023-01-09T22:58:07.341Z,97084.41
2023-01-09T23:00:38.089Z,97084.50
2023-01-09T23:03:07.388Z,97096.66
2023-01-09T23:05:36.716Z,97076.47
2023-01-09T23:08:06.541Z,97077.22
2023-01-09T23:10:35.901Z,97092.78
2023-01-09T23:13:18.138Z,97096.44
2023-01-09T23:15:55.959Z,97088.94
2023-01-09T23:18:25.811Z,97090.50
2023-01-09T23:20:57.537Z,97102.03
2023-01-09T23:23:28.679Z,97111.47
2023-01-09T23:26:01.721Z,97110.28
2023-01-09T23:28:31.745Z,97106.78
2023-01-09T23:31:02.751Z,97111.97
2023-01-09T23:33:31.983Z,97117.13
2023-01-09T23:36:01.490Z,97106.00
2023-01-09T23:38:30.961Z,97107.63
2023-01-09T23:41:00.363Z,97123.50
2023-01-09T23:43:28.637Z,97120.31
2023-01-09T23:45:58.078Z,97117.53
2023-01-09T23:48:28.898Z,97123.50
2023-01-09T23:50:58.345Z,97116.41
2023-01-09T23:53:31.006Z,97125.13
2023-01-09T23:56:01.415Z,97128.34
2023-01-09T23:58:32.632Z,97116.41
